createdAt,value
2018-07-19T00:02:23.933Z,3.40
2018-07-19T00:07:28.305Z,1.30
2018-07-19T00:12:31.807Z,4.65
2018-07-19T00:17:35.642Z,2.40
2018-07-19T00:22:39.113Z,6.43
2018-07-19T00:27:42.620Z,4.15
2018-07-19T00:32:46.113Z,1.75
2018-07-19T00:37:49.665Z,1.95
2018-07-19T00:42:53.457Z,6.22
2018-07-19T00:47:56.962Z,1.90
2018-07-19T00:53:00.671Z,3.40
2018-07-19T00:58:04.457Z,3.00
2018-07-19T01:03:08.103Z,1.97
2018-07-19T01:08:11.821Z,3.83
2018-07-19T01:13:15.377Z,3.87
2018-07-19T01:18:19.175Z,1.52
2018-07-19T01:23:23.017Z,7.42
2018-07-19T01:28:26.699Z,1.72
2018-07-19T01:33:30.336Z,1.75
2018-07-19T01:38:33.797Z,1.00
2018-07-19T01:43:37.466Z,1.50
2018-07-19T01:48:40.979Z,2.98
2018-07-19T01:53:44.647Z,6.05
2018-07-19T01:58:48.145Z,3.70
2018-07-19T02:03:51.726Z,2.03
2018-07-19T02:08:55.557Z,1.80
2018-07-19T02:13:59.222Z,3.47
2018-07-19T02:19:02.900Z,1.30
2018-07-19T02:24:06.404Z,1.47
2018-07-19T02:29:09.889Z,2.50
2018-07-19T02:34:13.461Z,5.53
2018-07-19T02:39:17.163Z,3.58
2018-07-19T02:44:20.774Z,9.10
2018-07-19T02:49:24.293Z,2.10
2018-07-19T02:54:27.828Z,2.58
2018-07-19T02:59:31.292Z,2.73
2018-07-19T03:04:34.816Z,4.40
2018-07-19T03:09:38.462Z,1.02
2018-07-19T03:14:41.976Z,3.90
2018-07-19T03:19:45.789Z,3.97
2018-07-19T03:24:49.263Z,2.53
2018-07-19T03:29:52.782Z,1.65
2018-07-19T03:34:56.309Z,1.77
2018-07-19T03:40:00.016Z,6.93
2018-07-19T03:45:03.569Z,3.33
2018-07-19T03:50:08.269Z,2.00
2018-07-19T03:55:12.062Z,2.30
2018-07-19T04:00:15.864Z,2.07
2018-07-19T04:05:19.402Z,2.03
2018-07-19T04:10:22.998Z,2.40
2018-07-19T04:15:26.718Z,5.23
2018-07-19T04:20:31.627Z,2.12
2018-07-19T04:25:35.129Z,1.73
2018-07-19T04:30:38.893Z,6.42
2018-07-19T04:35:42.719Z,5.42
2018-07-19T04:40:46.445Z,3.77
2018-07-19T04:45:50.033Z,2.47
2018-07-19T04:50:53.625Z,2.33
2018-07-19T04:55:57.390Z,2.03
2018-07-19T05:01:02.143Z,3.90
2018-07-19T05:06:05.817Z,2.77
2018-07-19T05:11:09.481Z,5.80
2018-07-19T05:16:12.956Z,4.20
2018-07-19T05:21:16.448Z,2.22
2018-07-19T05:26:19.926Z,2.90
2018-07-19T05:31:23.942Z,2.60
2018-07-19T05:36:27.667Z,5.30
2018-07-19T05:41:31.365Z,4.80
2018-07-19T05:46:35.036Z,2.15
2018-07-19T05:51:38.624Z,4.75
2018-07-19T05:56:42.305Z,5.37
2018-07-19T06:01:45.930Z,3.07
2018-07-19T06:06:49.416Z,5.80
2018-07-19T06:11:52.918Z,1.77
2018-07-19T06:16:56.420Z,2.60
2018-07-19T06:21:59.920Z,1.57
2018-07-19T06:27:03.427Z,5.58
2018-07-19T06:32:07.032Z,4.33
2018-07-19T06:37:10.879Z,4.40
2018-07-19T06:42:14.481Z,2.63
2018-07-19T06:47:18.025Z,4.23
2018-07-19T06:52:21.503Z,7.80
2018-07-19T06:57:25.076Z,5.20
2018-07-19T07:02:28.589Z,3.65
2018-07-19T07:23:55.205Z,3.27
2018-07-19T07:28:58.629Z,2.30
2018-07-19T07:34:02.379Z,3.70
2018-07-19T07:39:08.902Z,4.12
2018-07-19T07:44:12.554Z,2.00
2018-07-19T07:49:16.098Z,2.23
2018-07-19T07:54:19.675Z,2.42
2018-07-19T07:59:23.549Z,6.17
2018-07-19T08:04:27.302Z,3.83
2018-07-19T08:09:30.857Z,5.70
2018-07-19T08:14:34.780Z,4.50
2018-07-19T08:19:38.238Z,4.85
2018-07-19T08:24:41.701Z,7.90
2018-07-19T08:29:45.198Z,4.20
2018-07-19T08:34:48.973Z,5.85
2018-07-19T08:39:52.548Z,4.63
2018-07-19T08:44:56.583Z,3.00
2018-07-19T08:50:00.281Z,4.20
2018-07-19T08:55:04.120Z,7.97
2018-07-19T09:00:07.792Z,5.40
2018-07-19T09:05:11.776Z,5.97
2018-07-19T09:10:15.817Z,4.45
2018-07-19T09:15:19.520Z,4.60
2018-07-19T09:20:23.090Z,4.87
2018-07-19T09:25:26.949Z,5.27
2018-07-19T09:30:30.506Z,6.30
2018-07-19T09:35:34.188Z,4.80
2018-07-19T09:40:37.788Z,4.47
2018-07-19T09:45:41.309Z,4.95
2018-07-19T09:50:44.975Z,4.28
2018-07-19T09:55:48.561Z,6.78
2018-07-19T10:00:57.681Z,3.43
2018-07-19T10:06:01.222Z,3.43
2018-07-19T10:11:04.741Z,5.58
2018-07-19T10:16:08.644Z,4.20
2018-07-19T10:21:12.160Z,4.65
2018-07-19T10:26:15.669Z,3.52
2018-07-19T10:31:19.316Z,6.87
2018-07-19T10:36:23.131Z,6.10
2018-07-19T10:41:27.407Z,2.93
2018-07-19T10:46:30.969Z,6.05
2018-07-19T10:51:34.473Z,8.35
2018-07-19T10:56:38.402Z,4.33
2018-07-19T11:01:42.054Z,4.15
2018-07-19T11:06:45.592Z,6.12
2018-07-19T11:11:49.301Z,4.60
2018-07-19T11:16:52.883Z,4.22
2018-07-19T11:21:56.489Z,2.53
2018-07-19T11:26:59.941Z,3.22
2018-07-19T11:32:03.754Z,3.50
2018-07-19T11:37:07.231Z,8.23
2018-07-19T11:42:11.302Z,2.80
2018-07-19T11:47:14.905Z,4.23
2018-07-19T11:52:18.601Z,2.05
2018-07-19T11:57:22.145Z,2.98
2018-07-19T12:02:25.724Z,5.50
2018-07-19T12:07:29.330Z,2.02
2018-07-19T12:12:32.997Z,2.42
2018-07-19T12:17:36.454Z,4.37
2018-07-19T12:22:40.158Z,8.30
2018-07-19T12:27:43.770Z,3.90
2018-07-19T12:32:47.481Z,4.42
2018-07-19T12:37:50.957Z,2.33
2018-07-19T12:42:55.412Z,3.10
2018-07-19T12:47:59.193Z,2.92
2018-07-19T12:53:02.928Z,2.33
2018-07-19T12:58:06.564Z,2.15
2018-07-19T13:03:10.036Z,2.52
2018-07-19T13:08:14.307Z,2.73
2018-07-19T13:13:18.324Z,2.25
2018-07-19T13:18:21.942Z,1.50
2018-07-19T13:23:25.567Z,2.17
2018-07-19T13:28:29.424Z,4.87
2018-07-19T13:33:33.454Z,2.70
2018-07-19T13:38:36.994Z,3.13
2018-07-19T13:43:40.660Z,2.12
2018-07-19T13:48:44.138Z,3.15
2018-07-19T13:54:17.029Z,7.17
2018-07-19T13:59:20.886Z,6.03
2018-07-19T14:04:24.531Z,2.83
2018-07-19T14:09:27.958Z,7.33
2018-07-19T14:14:31.383Z,2.72
2018-07-19T14:19:35.134Z,2.17
2018-07-19T14:24:38.686Z,2.33
2018-07-19T14:29:42.138Z,2.05
2018-07-19T14:34:45.629Z,5.87
2018-07-19T14:39:49.164Z,2.20
2018-07-19T14:44:52.858Z,1.80
2018-07-19T14:49:56.626Z,4.58
2018-07-19T14:55:00.358Z,2.60
2018-07-19T15:00:04.538Z,2.75
2018-07-19T15:05:08.569Z,7.08
2018-07-19T15:10:12.184Z,2.20
2018-07-19T15:15:15.797Z,1.95
2018-07-19T15:20:19.793Z,2.10
2018-07-19T15:25:23.523Z,2.45
2018-07-19T15:30:27.278Z,2.37
2018-07-19T15:35:30.862Z,4.43
2018-07-19T15:40:34.318Z,1.90
2018-07-19T15:45:37.798Z,3.87
2018-07-19T15:50:41.602Z,2.05
2018-07-19T15:55:45.253Z,1.42
2018-07-19T16:00:49.060Z,3.67
2018-07-19T16:05:52.765Z,1.30
2018-07-19T16:10:56.514Z,3.80
2018-07-19T16:16:00.123Z,18.50
2018-07-19T16:21:03.689Z,16.37
2018-07-19T16:26:07.544Z,23.05
2018-07-19T16:31:12.213Z,24.92
2018-07-19T16:36:16.438Z,20.72
2018-07-19T16:41:20.092Z,16.48
2018-07-19T16:46:23.701Z,14.27
2018-07-19T16:51:27.193Z,12.25
2018-07-19T16:56:30.685Z,13.03
2018-07-19T17:01:35.124Z,14.47
2018-07-19T17:06:39.165Z,9.53
2018-07-19T17:11:42.809Z,13.83
2018-07-19T17:16:46.290Z,9.53
2018-07-19T17:21:49.942Z,7.20
2018-07-19T17:26:54.364Z,9.45
2018-07-19T17:31:58.392Z,8.70
2018-07-19T17:37:02.289Z,7.58
2018-07-19T17:42:05.932Z,7.12
2018-07-19T17:47:09.548Z,6.00
2018-07-19T17:52:13.061Z,5.87
2018-07-19T17:57:17.025Z,10.38
2018-07-19T18:02:20.593Z,4.85
2018-07-19T18:07:24.517Z,4.30
2018-07-19T18:12:28.142Z,6.03
2018-07-19T18:17:32.222Z,5.60
2018-07-19T18:22:35.726Z,8.20
2018-07-19T18:27:39.367Z,4.90
2018-07-19T18:32:44.047Z,9.78
2018-07-19T18:37:47.756Z,7.45
2018-07-19T18:42:52.084Z,4.40
2018-07-19T18:47:55.584Z,4.35
2018-07-19T18:52:59.305Z,5.62
2018-07-19T18:58:02.849Z,3.60
2018-07-19T19:03:06.689Z,4.75
2018-07-19T19:08:10.557Z,5.10
2018-07-19T19:13:14.126Z,3.52
2018-07-19T19:18:17.902Z,3.27
2018-07-19T19:23:21.642Z,6.97
2018-07-19T19:28:25.400Z,7.58
2018-07-19T19:33:29.106Z,4.87
2018-07-19T19:38:32.610Z,4.55
2018-07-19T19:43:36.705Z,8.48
2018-07-19T19:48:40.397Z,4.78
2018-07-19T19:53:43.913Z,5.65
2018-07-19T19:58:47.516Z,2.10
2018-07-19T20:03:51.439Z,4.37
2018-07-19T20:08:55.156Z,2.87
2018-07-19T20:13:58.933Z,3.47
2018-07-19T20:19:02.386Z,6.17
2018-07-19T20:24:05.898Z,4.53
2018-07-19T20:29:09.594Z,5.30
2018-07-19T20:34:13.097Z,7.63
2018-07-19T20:39:16.613Z,10.15
2018-07-19T20:44:20.551Z,8.05
2018-07-19T20:49:23.980Z,5.07
2018-07-19T20:54:27.505Z,8.50
2018-07-19T20:59:31.108Z,4.97
2018-07-19T21:04:34.594Z,5.62
2018-07-19T21:09:38.741Z,5.08
2018-07-19T21:14:42.685Z,5.45
2018-07-19T21:19:46.192Z,4.30
2018-07-19T21:24:49.705Z,4.00
2018-07-19T21:29:54.048Z,5.90
2018-07-19T21:34:58.152Z,4.25
2018-07-19T21:40:01.791Z,5.80
2018-07-19T21:45:05.828Z,6.42
2018-07-19T21:50:09.545Z,5.80
2018-07-19T21:55:13.331Z,7.53
2018-07-19T22:00:16.801Z,8.87
2018-07-19T22:05:20.399Z,5.05
2018-07-19T22:10:23.877Z,4.75
2018-07-19T22:15:27.675Z,7.33
2018-07-19T22:20:31.289Z,4.40
2018-07-19T22:25:34.817Z,7.33
2018-07-19T22:30:38.387Z,7.83
2018-07-19T22:35:41.873Z,6.50
2018-07-19T22:40:45.334Z,6.50
2018-07-19T22:45:48.813Z,6.67
2018-07-19T22:50:52.286Z,7.73
2018-07-19T22:55:55.873Z,8.35
2018-07-19T23:00:59.425Z,9.88
2018-07-19T23:06:03.081Z,7.80
2018-07-19T23:11:06.612Z,7.78
2018-07-19T23:16:10.633Z,8.13
2018-07-19T23:21:14.261Z,6.05
2018-07-19T23:26:17.976Z,7.63
2018-07-19T23:31:21.738Z,7.45
2018-07-19T23:36:29.245Z,5.33
2018-07-19T23:41:38.047Z,12.07
2018-07-19T23:46:46.024Z,6.70
2018-07-19T23:51:49.477Z,8.35
2018-07-19T23:56:52.937Z,6.47
